• Join FlightAware (Why Join?)
  • Login
  • US Flag 
09:47PM EDT


 

Airport Tracker/Info


-or-


 

Live Flight TrackerFlight Track Log ✈ UAL1177 ✈ 18-May-2013 ✈ KFLL - KEWR

Flight Track Log - Related Links

Times and Time Zones

All times are in EDT time to prevent confusion due to time zone crossing. See the UAL1177 flight status page for this flight to view local times or setup timezone preferences in your user account.

Time Position Orientation Groundspeed Altitude Reporting Facility
EDT Latitude Longitude Course Direction KTS MPH feet Rate Location/Type
10:10AM 26.0790 -80.1040 48° Northeast 201 231 1,200  Level FlightAware
10:12AM 26.1437 -79.8121 48° Northeast  Level FlightAware Approximate
10:12AM 26.1360 -79.9210 71° East 272 313 6,800  Level FlightAware
10:13AM 26.1770 -79.8350 62° Northeast 287 330 9,800 2,040 Climbing FlightAware
10:14AM 26.2250 -79.7370 61° Northeast 347 399 11,500 1,800 Climbing FlightAware
10:15AM 26.2870 -79.6250 58° Northeast 373 429 13,900 2,220 Climbing FlightAware
10:17AM 26.3940 -79.5580 29° Northeast 385 443 16,500 2,100 Climbing FlightAware
10:17AM 26.4580 -79.5200 28° Northeast 395 455 17,800 1,980 Climbing FlightAware
10:18AM 26.5230 -79.4820 28° Northeast 402 463 19,200 1,920 Climbing FlightAware
10:19AM 26.5950 -79.4390 28° Northeast 410 472 20,600 1,680 Climbing FlightAware
10:19AM 26.6630 -79.3990 28° Northeast 422 486 21,600 1,680 Climbing FlightAware
10:20AM 26.7440 -79.3500 28° Northeast 426 490 23,000 1,800 Climbing FlightAware
10:21AM 26.8140 -79.3080 28° Northeast 426 490 24,200 1,560 Climbing FlightAware
10:21AM 26.8840 -79.2670 28° Northeast 435 501 25,100 1,380 Climbing FlightAware
10:22AM 26.9570 -79.2230 28° Northeast 442 509 26,100 1,380 Climbing FlightAware
10:23AM 27.0370 -79.1750 28° Northeast 446 513 27,100 1,320 Climbing FlightAware
10:23AM 27.1110 -79.1300 28° Northeast 451 519 28,000 1,080 Climbing FlightAware
10:24AM 27.1770 -79.0940 26° Northeast 445 512 28,600 960 Climbing FlightAware
10:24AM 27.2240 -79.0810 14° North 439 505 29,000 900 Climbing FlightAware
10:25AM 27.2990 -79.0690 North 455 524 29,500 960 Climbing FlightAware
10:26AM 27.3990 -79.0520 North 458 527 30,400 1,080 Climbing FlightAware
10:27AM 27.4850 -79.0380 North 458 527 31,100 960 Climbing FlightAware
10:27AM 27.5580 -79.0260 North 451 519 31,700 720 Climbing FlightAware
10:28AM 27.6790 -79.0070 North 452 520 32,300 360 Climbing FlightAware
10:29AM 27.7500 -78.9960 North 452 520 32,300  Level FlightAware
10:30AM 27.8380 -78.9820 North 452 520 32,300 1,980 Level FlightAware
10:30AM 27.9300 -78.9670 North 436 502 35,000 1,980 Climbing FlightAware
10:31AM 28.0350 -78.9500 North 438 504 35,000  Level FlightAware
10:32AM 28.1250 -78.9360 North 438 504 35,000  Level FlightAware
10:32AM 28.1970 -78.9240 North 437 503 35,000  Level FlightAware
10:33AM 28.2820 -78.9110 North 435 501 35,000  Level FlightAware
10:34AM 28.3600 -78.8990 North 435 501 35,000  Level FlightAware
10:34AM 28.4270 -78.8880 North 435 501 35,000  Level FlightAware
10:35AM 28.5120 -78.8740 North 435 501 35,000  Level FlightAware
10:36AM 28.5800 -78.8630 North 435 501 35,000  Level FlightAware
10:37AM 28.7150 -78.8410 North 441 507 35,000  Level FlightAware
10:37AM 28.7840 -78.8300 North 441 507 35,000 -120 Level FlightAware
10:38AM 28.8800 -78.8192 North 444 511 34,900  Descending Miami Center
10:39AM 28.9972 -78.7975 North 444 511 35,000  Climbing Miami Center
10:40AM 29.1206 -78.7758 North 446 513 35,000  Level Miami Center
10:41AM 29.2439 -78.7567 North 451 519 35,000  Level Miami Center
10:42AM 29.3611 -78.7300 11° North 438 504 35,000  Level Miami Center
10:43AM 29.4947 -78.7203 North 449 517 35,000  Level Miami Center
10:44AM 29.6158 -78.6986 North 442 509 35,000  Level Miami Center
10:46AM 29.9119 -78.6492 North 442 509 35,000  Level Jacksonville Center
10:47AM 30.0325 -78.6294 North 442 509 35,000  Level Jacksonville Center
10:48AM 30.1506 -78.6050 10° North 442 509 35,000  Level Jacksonville Center
10:49AM 30.2814 -78.5847 North 436 502 35,000  Level Jacksonville Center
10:50AM 30.4039 -78.5650 North 436 502 35,000  Level Jacksonville Center
10:51AM 30.5242 -78.5450 North 436 502 35,000  Level Jacksonville Center
10:52AM 30.6364 -78.5253 North 430 495 35,000  Level Jacksonville Center
10:53AM 30.7589 -78.5053 North 425 489 35,000  Level Jacksonville Center
10:54AM 30.8769 -78.4853 North 430 495 35,000  Level Jacksonville Center
10:55AM 30.9975 -78.4650 North 420 483 35,000  Level Jacksonville Center
10:56AM 31.1136 -78.4475 North 425 489 35,000  Level Jacksonville Center
10:57AM 31.2278 -78.4225 11° North 443 510 35,000  Level Jacksonville Center
10:58AM 31.3439 -78.4050 North 437 503 35,000  Level Jacksonville Center
10:59AM 31.4642 -78.3844 North 432 497 35,000  Level Jacksonville Center
11:05AM 32.1130 -78.2730 North 435 501 35,000  Level FlightAware
11:05AM 32.1940 -78.2590 North 435 501 35,000  Level FlightAware
11:06AM 32.2890 -78.2420 North 434 499 35,000  Level FlightAware
11:07AM 32.3770 -78.2270 North 434 499 35,000  Level FlightAware
11:07AM 32.4280 -78.2180 North 434 499 35,000  Level FlightAware
11:08AM 32.5430 -78.1980 North 433 498 35,000  Level FlightAware
11:09AM 32.6200 -78.1840 North 432 497 35,000  Level FlightAware
11:10AM 32.6900 -78.1720 North 431 496 35,000  Level FlightAware
11:10AM 32.7580 -78.1600 North 431 496 35,000  Level FlightAware
11:11AM 32.8600 -78.1420 North 430 495 35,000  Level FlightAware
11:12AM 32.9520 -78.1260 North 430 495 35,000  Level FlightAware
11:12AM 33.0130 -78.1160 North 430 495 35,000  Level FlightAware
11:13AM 32.9520 -78.1260 188° South 35,000  Level FlightAware
11:13AM 33.1430 -78.0920 North 429 494 35,000  Level FlightAware
11:14AM 33.2310 -78.0760 North 430 495 35,000  Level FlightAware
11:15AM 33.2950 -78.0660 North 430 495 35,000  Level FlightAware
11:16AM 33.4180 -78.0440 North 431 496 35,000  Level FlightAware
11:16AM 33.5040 -78.0280 North 432 497 35,000  Level FlightAware
11:18AM 33.6490 -78.0020 North 434 499 35,000  Level FlightAware
11:18AM 33.7290 -77.9870 North 435 501 35,000  Level FlightAware
11:19AM 33.8080 -77.9730 North 435 501 35,000  Level FlightAware
11:20AM 33.8970 -77.9570 North 435 501 35,000  Level FlightAware
11:20AM 33.9800 -77.9420 North 435 501 35,000  Level FlightAware
11:21AM 34.0640 -77.9270 North 435 501 35,000  Level FlightAware
11:22AM 34.1250 -77.9160 North 435 501 35,000  Level FlightAware
11:22AM 34.1930 -77.9050 North 435 501 35,000  Level FlightAware
11:23AM 34.2780 -77.8900 North 435 501 35,000  Level FlightAware
11:24AM 34.3450 -77.8790 North 435 501 35,000  Level FlightAware
11:25AM 34.4130 -77.8670 North 435 501 35,000  Level FlightAware
11:25AM 34.4810 -77.8560 North 435 501 35,000  Level FlightAware
11:26AM 34.5490 -77.8440 North 435 501 35,000  Level FlightAware
11:27AM 34.6330 -77.8300 North 435 501 35,000  Level FlightAware
11:27AM 34.7010 -77.8180 North 435 501 35,000  Level FlightAware
11:28AM 34.7690 -77.8070 North 435 501 35,000  Level FlightAware
11:29AM 34.8370 -77.7950 North 435 501 35,000  Level FlightAware
11:30AM 34.9210 -77.7810 North 435 501 35,000  Level FlightAware
11:30AM 34.9890 -77.7690 North 435 501 35,000  Level FlightAware
11:31AM 35.0570 -77.7570 North 435 501 35,000  Level FlightAware
11:32AM 35.4160 -77.8590 347° North 438 504 35,000  Level FlightAware
11:33AM 35.5200 -77.8790 351° North 437 503 35,000  Level FlightAware
11:34AM 35.6200 -77.8560 11° North 435 501 35,000  Level FlightAware
11:34AM 35.6740 -77.8560 360° North 435 501 35,000  Level FlightAware
11:35AM 35.7630 -77.8540 North 434 499 35,000  Level FlightAware
11:36AM 35.8430 -77.8530 North 433 498 35,000  Level FlightAware
11:37AM 35.9350 -77.8520 North 432 497 35,000  Level FlightAware
11:37AM 36.0160 -77.8510 North 432 497 35,000  Level FlightAware
11:38AM 36.0950 -77.8500 North 432 497 35,000  Level FlightAware
11:39AM 36.1830 -77.8480 North 433 498 35,000  Level FlightAware
11:39AM 36.2640 -77.8470 North 435 501 35,000  Level FlightAware
11:40AM 36.3550 -77.8460 North 436 502 35,000  Level FlightAware
11:41AM 36.4350 -77.8440 North 427 491 35,000  Level FlightAware
11:41AM 36.5230 -77.8430 North 427 491 35,000  Level FlightAware
11:42AM 36.6020 -77.8420 North 427 491 35,000  Level FlightAware
11:43AM 36.7090 -77.8550 354° North 415 478 35,000  Level FlightAware
11:44AM 36.7860 -77.9010 334° Northwest 411 473 35,000  Level FlightAware
11:44AM 36.8540 -77.9430 334° Northwest 410 472 35,000  Level FlightAware
11:45AM 36.9100 -77.9780 333° Northwest 409 471 35,000  Level FlightAware
11:46AM 36.9870 -78.0260 334° Northwest 407 468 35,000  Level FlightAware
11:47AM 37.0610 -78.0720 334° Northwest 406 467 35,000  Level FlightAware
11:47AM 37.1390 -78.1210 333° Northwest 398 458 35,000  Level FlightAware
11:48AM 37.1760 -78.1430 335° Northwest 414 476 35,000  Level FlightAware
11:48AM 37.2410 -78.1490 356° North 424 488 35,000  Level FlightAware
11:48AM 37.2660 -78.1370 21° North 432 497 35,000  Level FlightAware
11:49AM 37.3330 -78.0750 36° Northeast 452 520 35,000  Level FlightAware
11:50AM 37.4100 -78.0010 37° Northeast 451 519 35,000  Level FlightAware
11:51AM 37.4760 -77.9380 37° Northeast 452 520 35,000  Level FlightAware
11:51AM 37.5510 -77.8660 37° Northeast 453 521 35,000  Level FlightAware
11:52AM 37.6170 -77.8030 37° Northeast 454 522 35,000  Level FlightAware
11:53AM 37.6830 -77.7400 37° Northeast 455 524 35,000  Level FlightAware
11:53AM 37.7620 -77.6660 37° Northeast 455 524 35,000  Level FlightAware
11:54AM 37.8290 -77.6010 37° Northeast 450 518 35,000  Level FlightAware
11:55AM 37.9000 -77.5320 37° Northeast 448 516 35,000  Level FlightAware
11:55AM 37.9670 -77.4680 37° Northeast 448 516 35,000  Level FlightAware
11:56AM 38.0310 -77.4050 38° Northeast 447 514 35,000  Level FlightAware
11:56AM 38.0555 -77.3819 37° Northeast 447 514 35,000  Level FlightAware ADS-B
11:57AM 38.1059 -77.3331 37° Northeast 448 516 35,000  Level FlightAware ADS-B
11:57AM 38.1587 -77.2819 37° Northeast 448 516 35,000  Level FlightAware ADS-B
11:58AM 38.2107 -77.2312 37° Northeast 448 516 35,000  Level FlightAware ADS-B
11:58AM 38.2628 -77.1804 37° Northeast 449 517 35,000  Level FlightAware ADS-B
11:59AM 38.3110 -77.1330 38° Northeast 449 517 35,000  Level FlightAware
11:59AM 38.3376 -77.1074 37° Northeast 449 517 35,000  Level FlightAware ADS-B
12:00PM 38.3887 -77.0575 37° Northeast 450 518 35,000  Level FlightAware ADS-B
12:00PM 38.4427 -77.0047 37° Northeast 448 516 35,000  Level FlightAware ADS-B
12:01PM 38.4934 -76.9548 38° Northeast 448 516 35,000  Level FlightAware ADS-B
12:01PM 38.5449 -76.9039 38° Northeast 448 516 35,000  Level FlightAware ADS-B
12:02PM 38.5957 -76.8538 38° Northeast 447 514 35,000  Level FlightAware ADS-B
12:02PM 38.6470 -76.8030 38° Northeast 448 516 35,000  Level FlightAware ADS-B
12:03PM 38.6976 -76.7531 38° Northeast 448 516 35,000  Level FlightAware ADS-B
12:03PM 38.7449 -76.7000 41° Northeast 450 518 35,000  Level FlightAware ADS-B
12:04PM 38.7924 -76.6454 42° Northeast 450 518 35,000  Level FlightAware ADS-B
12:04PM 38.8388 -76.5919 42° Northeast 450 518 35,000  Level FlightAware ADS-B
12:05PM 38.8904 -76.5324 42° Northeast 452 520 35,000  Level FlightAware ADS-B
12:05PM 38.9369 -76.4784 42° Northeast 452 520 35,000 -300 Level FlightAware ADS-B
12:06PM 38.9837 -76.4240 42° Northeast 452 520 34,700 -900 Descending FlightAware ADS-B
12:06PM 39.0306 -76.3693 42° Northeast 452 520 34,100 -1,980 Descending FlightAware ADS-B
12:07PM 39.0788 -76.3135 42° Northeast 455 524 32,700 -2,880 Descending FlightAware ADS-B
12:07PM 39.1288 -76.2553 42° Northeast 459 528 31,100 -3,180 Descending FlightAware ADS-B
12:08PM 39.1780 -76.1979 42° Northeast 465 535 29,400 -3,180 Descending FlightAware ADS-B
12:08PM 39.2270 -76.1405 42° Northeast 467 537 27,900 -2,340 Descending FlightAware ADS-B
12:09PM 39.2779 -76.0808 42° Northeast 465 535 27,000 -900 Descending FlightAware ADS-B
12:10PM 39.3259 -76.0244 42° Northeast 465 535 27,000  Level FlightAware ADS-B
12:10PM 39.3738 -75.9680 42° Northeast 465 535 27,000  Level FlightAware ADS-B
12:11PM 39.4233 -75.9096 42° Northeast 465 535 27,000  Level FlightAware ADS-B
12:11PM 39.4735 -75.8501 42° Northeast 466 536 27,000 -240 Level FlightAware ADS-B
12:12PM 39.5228 -75.7917 42° Northeast 464 534 26,800 -1,380 Descending FlightAware ADS-B
12:12PM 39.5721 -75.7332 42° Northeast 457 526 25,600 -2,400 Descending FlightAware ADS-B
12:13PM 39.6184 -75.6779 43° Northeast 450 518 24,400 -2,340 Descending FlightAware ADS-B
12:13PM 39.6642 -75.6233 43° Northeast 442 509 23,300 -2,280 Descending FlightAware ADS-B
12:14PM 39.7098 -75.5689 43° Northeast 435 501 22,100 -2,340 Descending FlightAware ADS-B
12:14PM 39.7552 -75.5144 43° Northeast 429 494 20,900 -2,340 Descending FlightAware ADS-B
12:15PM 39.8040 -75.4556 43° Northeast 422 486 19,600 -2,280 Descending FlightAware ADS-B
12:15PM 39.8469 -75.4039 43° Northeast 415 478 18,500 -2,340 Descending FlightAware ADS-B
12:16PM 39.8887 -75.3532 43° Northeast 409 471 17,300 -2,400 Descending FlightAware ADS-B
12:16PM 39.9300 -75.3030 43° Northeast 406 467 16,100 -2,400 Descending FlightAware ADS-B
12:17PM 39.9713 -75.2525 43° Northeast 402 463 14,900 -2,220 Descending FlightAware ADS-B
12:17PM 40.0122 -75.2029 43° Northeast 391 450 13,900 -2,400 Descending FlightAware ADS-B
12:18PM 40.0515 -75.1548 43° Northeast 376 433 12,500 -2,280 Descending FlightAware ADS-B
12:18PM 40.0899 -75.1081 43° Northeast 362 417 11,600 -1,860 Descending FlightAware ADS-B
12:19PM 40.1280 -75.0615 43° Northeast 355 409 10,600 -1,500 Descending FlightAware ADS-B
12:19PM 40.1635 -75.0179 43° Northeast 333 383 10,100 -1,080 Descending FlightAware ADS-B
12:20PM 40.1803 -74.9972 43° Northeast 322 371 9,800 -1,020 Descending FlightAware ADS-B
12:20PM 40.1966 -74.9771 43° Northeast 312 359 9,600 -960 Descending FlightAware ADS-B
12:20PM 40.2130 -74.9570 43° Northeast 303 349 9,300 -1,140 Descending FlightAware ADS-B
12:20PM 40.2302 -74.9360 43° Northeast 298 343 9,000 -1,140 Descending FlightAware ADS-B
12:21PM 40.2467 -74.9156 43° Northeast 293 337 8,700 -1,200 Descending FlightAware ADS-B
12:21PM 40.2557 -74.9043 44° Northeast 291 335 8,500 -1,680 Descending FlightAware ADS-B
12:21PM 40.2696 -74.8849 47° Northeast 289 333 8,000 -1,620 Descending FlightAware ADS-B
12:21PM 40.2833 -74.8656 47° Northeast 288 331 7,700 -600 Descending FlightAware ADS-B
12:22PM 40.2970 -74.8464 47° Northeast 288 331 7,700 -240 Level FlightAware ADS-B
12:22PM 40.3108 -74.8271 47° Northeast 289 333 7,600 -420 Descending FlightAware ADS-B
12:22PM 40.3248 -74.8075 47° Northeast 289 333 7,500 -840 Descending FlightAware ADS-B
12:22PM 40.3386 -74.7882 47° Northeast 291 335 7,200 -1,200 Descending FlightAware ADS-B
12:23PM 40.3528 -74.7681 47° Northeast 292 336 6,900 -1,020 Descending FlightAware ADS-B
12:23PM 40.3670 -74.7482 47° Northeast 294 338 6,700 -960 Descending FlightAware ADS-B
12:23PM 40.3823 -74.7268 47° Northeast 292 336 6,400 -960 Descending FlightAware ADS-B
12:23PM 40.3965 -74.7065 47° Northeast 289 333 6,200 -960 Descending FlightAware ADS-B
12:24PM 40.4112 -74.6859 47° Northeast 286 329 5,900 -1,140 Descending FlightAware ADS-B
12:24PM 40.4163 -74.6800 41° Northeast 284 327 5,800 -780 Descending FlightAware ADS-B
12:24PM 40.4198 -74.6767 36° Northeast 283 326 5,800 -780 Level FlightAware ADS-B
12:24PM 40.4252 -74.6724 31° Northeast 282 325 5,700 -1,200 Descending FlightAware ADS-B
12:24PM 40.4315 -74.6685 25° Northeast 279 321 5,600 -540 Descending FlightAware ADS-B
12:24PM 40.4399 -74.6650 18° North 277 319 5,600  Level FlightAware ADS-B
12:24PM 40.4469 -74.6630 12° North 277 319 5,600  Level FlightAware ADS-B
12:24PM 40.4656 -74.6582 11° North 275 316 5,600 180 Level FlightAware ADS-B
12:25PM 40.4862 -74.6526 12° North 274 315 5,700 180 Climbing FlightAware ADS-B
12:25PM 40.5052 -74.6475 12° North 274 315 5,700  Level FlightAware ADS-B
12:25PM 40.5302 -74.6407 12° North 273 314 5,700  Level FlightAware ADS-B
12:26PM 40.5491 -74.6357 11° North 275 316 5,700  Level FlightAware ADS-B
12:26PM 40.5773 -74.6282 11° North 275 316 5,700  Level FlightAware ADS-B
12:26PM 40.6005 -74.6220 11° North 277 319 5,700 -180 Level FlightAware ADS-B
12:26PM 40.6209 -74.6165 12° North 276 318 5,600 -240 Descending FlightAware ADS-B
12:27PM 40.6397 -74.6116 11° North 275 316 5,600 240 Level FlightAware ADS-B
12:27PM 40.6517 -74.6069 17° North 276 318 5,700  Climbing FlightAware ADS-B
12:27PM 40.6587 -74.6024 26° Northeast 278 320 5,600  Descending FlightAware ADS-B
12:27PM 40.6761 -74.5898 29° Northeast 279 321 5,700  Climbing FlightAware ADS-B
12:28PM 40.6942 -74.5767 29° Northeast 279 321 5,600 -240 Descending FlightAware ADS-B
12:28PM 40.7118 -74.5640 29° Northeast 279 321 5,600 180 Level FlightAware ADS-B
12:28PM 40.7297 -74.5510 29° Northeast 279 321 5,700 240 Climbing FlightAware ADS-B
12:28PM 40.7371 -74.5457 28° Northeast 279 321 5,700  Level FlightAware ADS-B
12:28PM 40.7544 -74.5332 29° Northeast 279 321 5,700  Level FlightAware ADS-B
12:29PM 40.7720 -74.5206 28° Northeast 280 322 5,700  Level FlightAware ADS-B
12:29PM 40.7895 -74.5083 28° Northeast 281 323 5,700  Level FlightAware ADS-B
12:29PM 40.7959 -74.5037 29° Northeast 281 323 5,700 -240 Level FlightAware ADS-B
12:29PM 40.8201 -74.4865 28° Northeast 282 325 5,600 -480 Descending FlightAware ADS-B
12:29PM 40.8261 -74.4816 32° Northeast 282 325 5,500 -1,020 Descending FlightAware ADS-B
12:30PM 40.8327 -74.4741 41° Northeast 282 325 5,400 -960 Descending FlightAware ADS-B
12:30PM 40.8377 -74.4673 46° Northeast 281 323 5,300 -1,020 Descending FlightAware ADS-B
12:30PM 40.8651 -74.4287 47° Northeast 280 322 4,800 -780 Descending FlightAware ADS-B
12:31PM 40.8859 -74.4000 46° Northeast 276 318 4,600 -360 Descending FlightAware ADS-B
12:31PM 40.8950 -74.3876 46° Northeast 274 315 4,600 -420 Level FlightAware ADS-B
12:31PM 40.9180 -74.3350 60° Northeast 271 312 4,300 -780 Descending FlightAware
12:32PM 40.9250 -74.3030 74° East 269 310 3,900 -1,080 Descending FlightAware
12:32PM 40.9301 -74.2785 75° East 267 307 3,700 -960 Descending FlightAware ADS-B
12:32PM 40.9305 -74.2713 86° East 262 302 3,600 -720 Descending FlightAware ADS-B
12:32PM 40.9304 -74.2645 91° East 257 296 3,600  Level FlightAware ADS-B
12:32PM 40.9294 -74.2413 93° East 241 277 3,600 120 Level FlightAware ADS-B
12:33PM 40.9277 -74.2070 94° East 214 246 3,700  Climbing FlightAware ADS-B
12:33PM 40.9260 -74.1610 93° East 188 216 3,600 -120 Descending FlightAware
12:34PM 40.9251 -74.1431 94° East 198 228 3,600 -840 Level FlightAware ADS-B
12:35PM 40.9033 -74.1005 124° Southeast 189 217 2,700 -780 Descending FlightAware ADS-B
12:35PM 40.8877 -74.0989 176° South 176 203 2,700  Level FlightAware ADS-B
12:35PM 40.8744 -74.0975 175° South 175 201 2,700  Level FlightAware ADS-B
12:35PM 40.8648 -74.0965 175° South 173 199 2,700 -420 Level FlightAware ADS-B
12:36PM 40.8515 -74.0951 175° South 175 201 2,500 -780 Descending FlightAware ADS-B